Time;durP1;ratioP1;P1;durP2;ratioP2;P2;SDS_P1;SDS_P2;PMS_P1;PMS_P2;Temp;Humidity;BMP_temperature;BMP_pressure;BME280_temperature;BME280_humidity;BME280_pressure;Samples;Min_cycle;Max_cycle;Signal;HPM_P1;HPM_P2
2024/01/08 00:01:17;;;;;;;26.73;18.73;;;3.00;99.90;;;;;;4914470;29;20052;-75
2024/01/08 00:03:44;;;;;;;30.30;20.65;;;2.90;99.90;;;;;;4928553;29;20051;-75
2024/01/08 00:06:12;;;;;;;27.13;18.23;;;2.80;99.90;;;;;;4923959;29;20081;-77
2024/01/08 00:08:40;;;;;;;24.63;17.98;;;2.70;99.90;;;;;;4906537;29;20122;-75
2024/01/08 00:11:07;;;;;;;24.52;17.95;;;2.70;99.90;;;;;;4913855;29;20056;-75
2024/01/08 00:13:36;;;;;;;24.50;17.73;;;2.70;99.90;;;;;;4911289;29;20052;-74
2024/01/08 00:16:04;;;;;;;25.02;17.95;;;2.70;99.90;;;;;;4919448;29;20103;-76
2024/01/08 00:18:32;;;;;;;25.33;19.17;;;2.80;99.90;;;;;;4907954;29;20111;-76
2024/01/08 00:21:02;;;;;;;27.27;18.67;;;2.90;99.90;;;;;;4907722;29;20044;-76
2024/01/08 00:23:33;;;;;;;24.88;16.70;;;3.00;99.90;;;;;;4908090;29;20539;-75
2024/01/08 00:26:00;;;;;;;23.85;16.42;;;3.00;99.90;;;;;;4908051;29;20054;-74
2024/01/08 00:28:28;;;;;;;18.50;12.35;;;3.00;99.90;;;;;;4908592;29;20162;-73
2024/01/08 00:30:57;;;;;;;18.83;12.98;;;2.90;99.90;;;;;;4926088;29;20083;-75
2024/01/08 00:33:25;;;;;;;16.40;12.05;;;2.90;99.90;;;;;;4907969;29;20079;-75
2024/01/08 00:35:53;;;;;;;16.95;12.05;;;2.90;99.90;;;;;;4920613;29;20040;-76
2024/01/08 00:38:20;;;;;;;15.32;10.52;;;2.80;99.90;;;;;;4940644;29;20083;-74
2024/01/08 00:40:48;;;;;;;15.63;10.48;;;2.80;99.90;;;;;;4953543;29;20044;-73
2024/01/08 00:43:16;;;;;;;18.95;10.73;;;2.80;99.90;;;;;;4925225;29;20064;-76
2024/01/08 00:45:44;;;;;;;14.38;9.68;;;2.80;99.90;;;;;;4923628;29;20491;-77
2024/01/08 00:48:15;;;;;;;12.23;9.15;;;2.80;99.90;;;;;;4927923;29;20183;-75
2024/01/08 00:50:43;;;;;;;12.63;9.57;;;2.80;99.90;;;;;;4926100;29;20059;-75
2024/01/08 00:53:11;;;;;;;13.13;8.95;;;2.80;99.90;;;;;;4923712;29;20044;-75
2024/01/08 00:55:38;;;;;;;13.02;8.68;;;2.90;99.90;;;;;;4939892;29;20056;-74
2024/01/08 00:58:06;;;;;;;11.18;8.18;;;2.90;99.90;;;;;;4928100;29;20143;-74
2024/01/08 01:00:34;;;;;;;13.45;9.07;;;2.80;99.90;;;;;;4928114;29;20052;-75
2024/01/08 01:03:03;;;;;;;12.35;9.35;;;2.70;99.90;;;;;;4932546;29;20058;-75
2024/01/08 01:05:32;;;;;;;14.07;9.63;;;2.70;99.90;;;;;;4935317;29;20074;-75
2024/01/08 01:08:00;;;;;;;12.95;9.43;;;2.60;99.90;;;;;;4927500;29;20049;-76
2024/01/08 01:10:27;;;;;;;13.20;9.27;;;2.60;99.90;;;;;;4927694;29;20048;-75
2024/01/08 01:12:55;;;;;;;12.82;9.88;;;2.70;99.90;;;;;;4928188;29;20460;-74
2024/01/08 01:15:23;;;;;;;14.55;10.95;;;2.60;99.90;;;;;;4928753;29;20059;-74
2024/01/08 01:17:50;;;;;;;14.30;11.05;;;2.50;99.90;;;;;;4929476;29;20071;-74
2024/01/08 01:20:18;;;;;;;15.50;10.77;;;2.50;99.90;;;;;;4932214;29;20058;-74
2024/01/08 01:22:48;;;;;;;13.88;10.63;;;2.50;99.90;;;;;;4928116;29;20416;-75
2024/01/08 01:25:15;;;;;;;16.80;10.98;;;2.40;99.90;;;;;;4915670;29;20063;-74
2024/01/08 01:27:43;;;;;;;16.65;11.52;;;2.50;99.90;;;;;;4935660;29;20063;-74
2024/01/08 01:30:11;;;;;;;17.13;11.05;;;2.40;99.90;;;;;;4961156;29;20044;-76
2024/01/08 01:32:39;;;;;;;16.45;11.82;;;2.40;99.90;;;;;;4945312;29;20051;-75
2024/01/08 01:35:08;;;;;;;15.73;11.75;;;2.20;99.90;;;;;;4934891;29;20040;-75
2024/01/08 01:37:36;;;;;;;16.77;11.98;;;2.20;99.90;;;;;;4927460;29;20415;-75
2024/01/08 01:40:06;;;;;;;17.45;12.02;;;2.20;99.90;;;;;;4928678;29;20801;-74
2024/01/08 01:42:34;;;;;;;16.90;12.30;;;2.10;99.90;;;;;;4927869;29;20051;-75
2024/01/08 01:45:04;;;;;;;20.23;12.35;;;2.10;99.90;;;;;;4927525;29;20095;-76
2024/01/08 01:47:32;;;;;;;15.15;11.90;;;2.00;99.90;;;;;;4958287;29;20030;-76
2024/01/08 01:50:00;;;;;;;17.35;12.75;;;2.00;99.90;;;;;;4946156;29;20043;-76
2024/01/08 01:52:28;;;;;;;19.60;13.02;;;2.00;99.90;;;;;;4936896;29;20051;-75
2024/01/08 01:54:57;;;;;;;17.35;13.57;;;2.00;99.90;;;;;;4940968;29;20088;-74
2024/01/08 01:57:28;;;;;;;19.67;14.15;;;2.00;99.90;;;;;;4940381;29;20120;-75
2024/01/08 01:59:57;;;;;;;17.40;13.40;;;2.00;99.90;;;;;;4945807;29;20028;-75
2024/01/08 02:02:27;;;;;;;20.50;14.40;;;2.10;99.90;;;;;;4937746;29;20117;-75
2024/01/08 02:04:56;;;;;;;19.10;14.38;;;2.10;99.90;;;;;;4945142;29;20028;-74
2024/01/08 02:07:24;;;;;;;21.17;14.93;;;2.10;99.90;;;;;;4926168;29;20095;-75
2024/01/08 02:09:51;;;;;;;21.20;14.05;;;2.20;99.90;;;;;;4945936;29;20044;-74
2024/01/08 02:12:21;;;;;;;18.10;12.90;;;2.20;99.90;;;;;;4927806;29;20058;-74
2024/01/08 02:14:50;;;;;;;17.85;13.20;;;2.10;99.90;;;;;;4925456;29;20437;-74
2024/01/08 02:17:24;;;;;;;17.85;13.52;;;2.10;99.90;;;;;;4927382;29;20044;-75
2024/01/08 02:19:54;;;;;;;16.38;12.68;;;2.00;99.90;;;;;;4945150;29;20048;-75
2024/01/08 02:22:21;;;;;;;19.45;13.45;;;2.00;99.90;;;;;;4935853;29;20660;-77
2024/01/08 02:24:51;;;;;;;14.85;11.73;;;2.00;99.90;;;;;;4947995;29;20072;-75
2024/01/08 02:27:25;;;;;;;14.48;10.98;;;2.00;99.90;;;;;;4959626;29;20048;-74
2024/01/08 02:29:56;;;;;;;13.38;10.07;;;2.00;99.90;;;;;;4938715;29;20092;-76
2024/01/08 02:32:35;;;;;;;12.60;10.05;;;1.90;99.90;;;;;;4940184;29;20487;-74
2024/01/08 02:35:03;;;;;;;14.40;10.02;;;1.70;99.90;;;;;;4950280;29;20048;-75
2024/01/08 02:37:31;;;;;;;16.00;11.65;;;1.70;99.90;;;;;;4940687;29;20036;-75
2024/01/08 02:40:02;;;;;;;14.75;11.07;;;1.70;99.90;;;;;;4938576;29;20058;-74
2024/01/08 02:42:32;;;;;;;13.90;9.98;;;1.70;99.90;;;;;;4945112;29;20052;-75
2024/01/08 02:45:00;;;;;;;15.00;10.65;;;1.60;99.90;;;;;;4930004;29;20051;-74
2024/01/08 02:47:28;;;;;;;15.80;11.98;;;1.60;99.90;;;;;;4937441;29;20042;-75
2024/01/08 02:49:55;;;;;;;15.60;11.57;;;1.60;99.90;;;;;;4940925;29;20048;-75
2024/01/08 02:52:23;;;;;;;15.77;12.13;;;1.60;99.90;;;;;;4926772;29;20103;-75
2024/01/08 02:54:51;;;;;;;15.82;12.00;;;1.50;99.90;;;;;;4928634;29;20047;-74
2024/01/08 02:57:21;;;;;;;17.05;13.00;;;1.50;99.90;;;;;;4936955;29;20060;-75
2024/01/08 03:02:36;;;;;;;17.50;13.45;;;1.50;99.90;;;;;;4845397;29;20486;-77
2024/01/08 03:05:04;;;;;;;16.55;12.82;;;1.50;99.90;;;;;;4856309;29;20057;-75
2024/01/08 03:07:31;;;;;;;17.80;13.50;;;1.50;99.90;;;;;;4854351;29;20138;-75
2024/01/08 03:09:59;;;;;;;17.38;13.15;;;1.60;99.90;;;;;;4852062;29;20048;-76
2024/01/08 03:12:29;;;;;;;19.90;13.73;;;1.60;99.90;;;;;;4854471;29;20046;-77
2024/01/08 03:14:57;;;;;;;17.60;13.27;;;1.60;99.90;;;;;;4868508;29;20081;-77
2024/01/08 03:17:25;;;;;;;16.30;12.88;;;1.50;99.90;;;;;;4854131;29;20049;-76
2024/01/08 03:19:55;;;;;;;16.85;13.15;;;1.60;99.90;;;;;;4867657;29;20240;-76
2024/01/08 03:22:23;;;;;;;16.60;12.60;;;1.50;99.90;;;;;;4850285;29;20057;-75
2024/01/08 03:24:51;;;;;;;19.67;13.88;;;1.60;99.90;;;;;;4848966;29;20127;-75
2024/01/08 03:27:19;;;;;;;17.90;13.70;;;1.60;99.90;;;;;;4843754;29;20046;-79
2024/01/08 03:29:52;;;;;;;18.20;13.60;;;1.60;99.90;;;;;;4852132;29;20056;-75
2024/01/08 03:32:21;;;;;;;21.52;15.25;;;1.70;99.90;;;;;;4868047;29;20057;-75
2024/01/08 03:34:49;;;;;;;21.33;15.98;;;1.70;99.90;;;;;;4928512;29;20048;-75
2024/01/08 03:37:17;;;;;;;22.42;15.38;;;1.70;99.90;;;;;;4944029;29;20120;-77
2024/01/08 03:39:45;;;;;;;21.30;15.50;;;1.70;99.90;;;;;;4933261;29;20056;-74
2024/01/08 03:42:14;;;;;;;19.05;14.82;;;1.70;99.90;;;;;;4927900;29;20126;-76
2024/01/08 03:44:42;;;;;;;18.92;14.45;;;1.60;99.90;;;;;;4942184;29;20039;-75
2024/01/08 03:47:14;;;;;;;21.58;15.20;;;1.50;99.90;;;;;;4923321;29;20058;-78
2024/01/08 03:49:42;;;;;;;24.02;16.55;;;1.50;99.90;;;;;;4944977;29;20492;-78
2024/01/08 03:52:10;;;;;;;20.92;15.38;;;1.60;99.90;;;;;;4935750;29;20047;-76
2024/01/08 03:54:41;;;;;;;23.13;16.30;;;1.60;99.90;;;;;;4931318;29;20128;-75
2024/01/08 03:57:13;;;;;;;21.58;16.00;;;1.60;99.90;;;;;;4957173;29;20068;-74
2024/01/08 03:59:49;;;;;;;20.83;15.40;;;1.70;99.90;;;;;;4932792;29;20555;-77
2024/01/08 04:02:18;;;;;;;;;;;1.70;99.90;;;;;;4926115;29;20052;-75
2024/01/08 04:04:46;;;;;;;22.77;15.93;;;1.70;99.90;;;;;;4925692;29;19945;-73
2024/01/08 04:07:16;;;;;;;21.77;15.80;;;1.70;99.90;;;;;;4926730;29;20119;-73
2024/01/08 04:09:43;;;;;;;24.27;17.70;;;1.60;99.90;;;;;;4938697;29;20052;-76
2024/01/08 04:12:13;;;;;;;22.10;16.60;;;1.60;99.90;;;;;;4936860;29;20384;-74
2024/01/08 04:14:41;;;;;;;24.77;19.00;;;1.60;99.90;;;;;;4941553;29;20050;-73
2024/01/08 04:17:09;;;;;;;23.98;18.65;;;1.60;99.90;;;;;;4927127;29;20452;-74
2024/01/08 04:19:38;;;;;;;25.30;19.83;;;1.60;99.90;;;;;;4935286;29;20036;-74
2024/01/08 04:22:06;;;;;;;24.75;19.20;;;1.60;99.90;;;;;;4936528;29;20083;-74
2024/01/08 04:24:34;;;;;;;24.10;18.48;;;1.60;99.90;;;;;;4927222;29;20590;-74
2024/01/08 04:27:02;;;;;;;29.73;21.58;;;1.60;99.90;;;;;;4929985;29;20472;-75
2024/01/08 04:29:30;;;;;;;28.13;21.27;;;1.50;99.90;;;;;;4926805;29;20054;-75
2024/01/08 04:31:58;;;;;;;28.63;21.83;;;1.50;99.90;;;;;;4931855;29;20052;-74
2024/01/08 04:34:27;;;;;;;29.40;22.65;;;1.50;99.90;;;;;;4927453;29;20056;-75
2024/01/08 04:36:57;;;;;;;30.35;22.40;;;1.50;99.90;;;;;;4931476;29;20071;-75
2024/01/08 04:39:28;;;;;;;28.35;22.40;;;1.60;99.90;;;;;;4930516;29;20051;-74
2024/01/08 04:41:56;;;;;;;32.92;24.23;;;1.60;99.90;;;;;;4947963;29;20048;-75
2024/01/08 04:44:23;;;;;;;32.60;24.58;;;1.60;99.90;;;;;;4933060;29;20054;-75
2024/01/08 04:46:51;;;;;;;32.13;23.90;;;1.60;99.90;;;;;;4943843;29;20404;-79
2024/01/08 04:49:21;;;;;;;30.98;23.80;;;1.60;99.90;;;;;;4934600;29;20127;-75
2024/01/08 04:51:50;;;;;;;30.45;23.08;;;1.60;99.90;;;;;;4930092;29;20052;-77
2024/01/08 04:54:18;;;;;;;30.63;23.25;;;1.60;99.90;;;;;;4931032;29;20522;-74
2024/01/08 04:56:48;;;;;;;27.88;21.58;;;1.60;99.90;;;;;;4929227;29;20076;-74
2024/01/08 04:59:19;;;;;;;31.48;23.00;;;1.60;99.90;;;;;;4947998;29;20071;-77
2024/01/08 05:01:47;;;;;;;28.58;21.73;;;1.60;99.90;;;;;;4946834;29;20059;-76
2024/01/08 05:04:15;;;;;;;29.25;22.55;;;1.60;99.90;;;;;;4940015;29;20056;-75
2024/01/08 05:06:43;;;;;;;28.35;21.85;;;1.70;99.90;;;;;;4943292;29;20055;-74
2024/01/08 05:09:11;;;;;;;29.65;23.27;;;1.60;99.90;;;;;;4942841;29;20099;-74
2024/01/08 05:11:42;;;;;;;30.25;22.92;;;1.70;99.90;;;;;;4935986;29;20054;-75
2024/01/08 05:14:15;;;;;;;29.98;23.27;;;1.70;99.90;;;;;;4934106;29;20055;-74
2024/01/08 05:16:42;;;;;;;30.27;22.38;;;1.80;99.90;;;;;;4936616;29;20526;-73
2024/01/08 05:19:10;;;;;;;29.23;22.42;;;1.80;99.90;;;;;;4933448;29;20734;-77
2024/01/08 05:21:38;;;;;;;34.45;24.85;;;1.80;99.90;;;;;;4935567;29;20115;-75
2024/01/08 05:24:06;;;;;;;32.75;24.63;;;1.80;99.90;;;;;;4931994;29;20055;-75
2024/01/08 05:27:09;;;;;;;31.00;24.20;;;1.80;99.90;;;;;;4931083;29;20066;-76
2024/01/08 05:30:10;;;;;;;36.33;26.90;;;1.80;99.90;;;;;;4934686;29;20567;-78
2024/01/08 05:32:58;;;;;;;35.72;26.38;;;1.80;99.90;;;;;;4936815;29;20050;-77
2024/01/08 05:35:50;;;;;;;33.20;25.52;;;1.80;99.90;;;;;;4948940;29;20047;-75
2024/01/08 05:38:27;;;;;;;39.53;27.52;;;1.80;99.90;;;;;;4917683;23;20140;-82
2024/01/08 05:40:55;;;;;;;33.58;25.25;;;1.80;99.90;;;;;;4904034;29;20451;-81
2024/01/08 05:43:23;;;;;;;32.63;23.38;;;1.80;99.90;;;;;;4904671;29;20504;-81
2024/01/08 05:45:53;;;;;;;32.22;23.90;;;1.80;99.90;;;;;;4905403;29;20055;-79
2024/01/08 05:48:21;;;;;;;36.70;26.40;;;1.80;99.90;;;;;;4887843;29;20044;-81
2024/01/08 05:50:49;;;;;;;33.03;24.15;;;1.80;99.90;;;;;;4904827;29;20128;-81
2024/01/08 05:53:17;;;;;;;34.63;26.25;;;1.80;99.90;;;;;;4905237;29;20079;-80
2024/01/08 05:55:44;;;;;;;36.17;27.00;;;1.80;99.90;;;;;;4888032;29;20040;-80
2024/01/08 05:58:13;;;;;;;35.83;25.73;;;1.90;99.90;;;;;;4904028;29;20067;-81
2024/01/08 06:00:40;;;;;;;32.30;26.02;;;1.90;99.90;;;;;;4904014;29;20126;-80
2024/01/08 06:03:09;;;;;;;38.65;27.98;;;1.90;99.90;;;;;;4905272;29;20131;-79
2024/01/08 06:05:37;;;;;;;40.30;28.45;;;1.90;99.90;;;;;;4888075;29;20576;-81
2024/01/08 06:08:05;;;;;;;45.50;32.45;;;1.80;99.90;;;;;;4904133;29;20108;-80
2024/01/08 06:10:32;;;;;;;38.72;28.27;;;1.80;99.90;;;;;;4893680;29;20056;-81
2024/01/08 06:13:00;;;;;;;36.00;26.02;;;1.80;99.90;;;;;;4904777;29;20044;-79
2024/01/08 06:15:27;;;;;;;36.38;26.98;;;1.80;99.90;;;;;;4886681;29;20048;-80
2024/01/08 06:17:55;;;;;;;33.58;25.13;;;1.80;99.90;;;;;;4903853;29;20048;-80
2024/01/08 06:20:24;;;;;;;30.42;23.15;;;1.80;99.90;;;;;;4903593;29;20499;-80
2024/01/08 06:22:52;;;;;;;30.05;22.60;;;1.70;99.90;;;;;;4886996;29;20048;-81
2024/01/08 06:25:19;;;;;;;30.10;23.15;;;1.70;99.90;;;;;;4886837;29;20041;-80
2024/01/08 06:27:47;;;;;;;37.25;23.63;;;1.70;99.90;;;;;;4903496;29;20047;-81
2024/01/08 06:30:15;;;;;;;29.17;21.88;;;1.70;99.90;;;;;;4904280;29;20130;-81
2024/01/08 06:32:43;;;;;;;31.52;25.10;;;1.70;99.90;;;;;;4904447;29;20041;-79
2024/01/08 06:35:11;;;;;;;31.02;24.33;;;1.80;99.90;;;;;;4904319;29;20048;-81
2024/01/08 06:37:42;;;;;;;30.35;22.90;;;1.80;99.90;;;;;;4903639;29;20036;-82
2024/01/08 06:40:10;;;;;;;34.42;24.63;;;1.80;99.90;;;;;;4887084;29;20052;-81
2024/01/08 06:42:38;;;;;;;37.90;28.00;;;1.90;99.90;;;;;;4904472;29;20386;-79
2024/01/08 06:45:06;;;;;;;36.22;26.85;;;1.90;99.90;;;;;;4902903;29;20044;-81
2024/01/08 06:47:33;;;;;;;36.97;25.52;;;1.90;99.90;;;;;;4903945;29;20096;-80
2024/01/08 06:50:01;;;;;;;36.25;26.08;;;1.90;99.90;;;;;;4903599;29;20047;-81
2024/01/08 06:52:28;;;;;;;45.00;29.63;;;1.80;99.90;;;;;;4904534;29;20056;-80
2024/01/08 06:54:57;;;;;;;44.80;31.35;;;1.80;99.90;;;;;;4903224;29;20051;-80
2024/01/08 06:57:25;;;;;;;41.40;30.20;;;1.80;99.90;;;;;;4902817;29;20246;-78
2024/01/08 06:59:52;;;;;;;41.70;30.70;;;1.80;99.90;;;;;;4903811;29;20044;-80
2024/01/08 07:02:20;;;;;;;42.10;29.52;;;1.90;99.90;;;;;;4887067;29;20111;-82
2024/01/08 07:04:47;;;;;;;40.95;30.92;;;1.90;99.90;;;;;;4887793;29;20532;-78
2024/01/08 07:07:15;;;;;;;41.97;30.85;;;1.90;99.90;;;;;;4903602;29;20048;-80
2024/01/08 07:09:42;;;;;;;36.42;26.13;;;1.90;99.90;;;;;;4903807;29;20040;-80
2024/01/08 07:12:11;;;;;;;38.60;28.23;;;2.00;99.90;;;;;;4903018;29;20477;-78
2024/01/08 07:14:45;;;;;;;35.20;26.70;;;2.00;99.90;;;;;;4903472;29;20051;-79
2024/01/08 07:17:13;;;;;;;51.88;36.80;;;2.10;99.90;;;;;;4903290;29;20072;-79
2024/01/08 07:19:41;;;;;;;43.58;30.85;;;2.00;99.90;;;;;;4903270;29;20047;-80
2024/01/08 07:22:09;;;;;;;40.15;28.90;;;2.00;99.90;;;;;;4888038;29;20148;-78
2024/01/08 07:24:36;;;;;;;38.90;27.92;;;1.90;99.90;;;;;;4903592;29;20048;-79
2024/01/08 07:27:04;;;;;;;43.10;30.92;;;1.80;99.90;;;;;;4886811;29;20511;-81
2024/01/08 07:29:33;;;;;;;43.35;30.42;;;1.90;99.90;;;;;;4903317;29;20040;-80
2024/01/08 07:32:00;;;;;;;40.05;30.02;;;1.80;99.90;;;;;;4903340;29;20049;-80
2024/01/08 07:34:28;;;;;;;39.65;28.15;;;1.80;99.90;;;;;;4885895;29;20049;-80
2024/01/08 07:36:55;;;;;;;40.97;27.65;;;1.80;99.90;;;;;;4886137;29;20070;-80
2024/01/08 07:39:23;;;;;;;31.80;24.70;;;1.90;99.90;;;;;;4903859;29;20063;-79
2024/01/08 07:41:50;;;;;;;33.72;25.90;;;1.80;99.90;;;;;;4885536;29;20078;-79
2024/01/08 07:44:17;;;;;;;35.70;25.90;;;1.80;99.90;;;;;;4903986;29;20048;-79
2024/01/08 07:46:46;;;;;;;40.13;29.30;;;1.90;99.90;;;;;;4905113;29;20070;-80
2024/01/08 07:49:14;;;;;;;37.80;27.73;;;1.90;99.90;;;;;;4903100;29;20048;-80
2024/01/08 07:51:41;;;;;;;35.53;26.33;;;1.90;99.90;;;;;;4887634;29;20104;-80
2024/01/08 07:54:08;;;;;;;35.75;25.83;;;1.90;99.90;;;;;;4903382;29;20044;-80
2024/01/08 07:56:36;;;;;;;40.17;28.33;;;1.90;99.90;;;;;;4904112;29;20070;-80
2024/01/08 08:02:55;;;;;;;34.17;26.63;;;1.80;99.90;;;;;;4907278;29;20084;-84
2024/01/08 08:05:22;;;;;;;41.33;28.80;;;1.80;99.90;;;;;;4908030;29;20056;-82
2024/01/08 08:07:53;;;;;;;39.95;28.42;;;1.80;99.90;;;;;;4899421;29;20040;-82
2024/01/08 08:10:26;;;;;;;32.78;24.35;;;1.90;99.90;;;;;;4906699;29;20086;-90
2024/01/08 08:12:53;;;;;;;39.85;28.83;;;1.80;99.90;;;;;;4910274;29;20059;-84
2024/01/08 08:15:21;;;;;;;51.03;33.85;;;1.70;99.90;;;;;;4892314;29;20482;-83
2024/01/08 08:17:49;;;;;;;54.05;36.72;;;1.70;99.90;;;;;;4890048;29;20036;-79
2024/01/08 08:20:18;;;;;;;52.22;37.03;;;1.70;99.90;;;;;;4906833;29;20560;-80
2024/01/08 08:22:46;;;;;;;75.72;40.58;;;1.80;99.90;;;;;;4906225;29;20060;-80
2024/01/08 08:25:13;;;;;;;52.58;38.75;;;1.90;99.90;;;;;;4905025;29;20044;-78
2024/01/08 08:27:41;;;;;;;53.00;37.53;;;1.90;99.90;;;;;;4906303;29;20071;-79
2024/01/08 08:30:11;;;;;;;52.58;37.53;;;2.10;99.90;;;;;;4906074;29;20044;-81
2024/01/08 08:32:40;;;;;;;53.65;39.17;;;2.10;99.90;;;;;;4890266;29;20104;-80
2024/01/08 08:35:08;;;;;;;58.22;35.90;;;2.10;99.90;;;;;;4890634;29;20048;-80
2024/01/08 08:37:37;;;;;;;51.53;34.60;;;2.00;99.90;;;;;;4905830;29;20048;-81
2024/01/08 08:40:06;;;;;;;50.78;36.13;;;2.00;99.90;;;;;;4906199;29;21043;-78
2024/01/08 08:42:33;;;;;;;58.40;39.75;;;1.90;99.90;;;;;;4906693;29;20099;-79
2024/01/08 08:45:01;;;;;;;55.28;37.95;;;1.90;99.90;;;;;;4891860;29;20060;-81
2024/01/08 08:47:28;;;;;;;51.92;35.97;;;2.10;99.90;;;;;;4910185;29;20087;-80
2024/01/08 08:49:56;;;;;;;55.78;40.13;;;2.10;99.90;;;;;;4908225;29;20123;-79
2024/01/08 08:52:23;;;;;;;58.17;40.22;;;2.10;99.90;;;;;;4889168;29;20441;-77
2024/01/08 08:54:52;;;;;;;61.63;42.00;;;2.10;99.90;;;;;;4906727;29;20071;-81
2024/01/08 08:57:19;;;;;;;54.50;40.17;;;2.10;99.90;;;;;;4908899;29;20067;-79
2024/01/08 08:59:46;;;;;;;55.75;37.47;;;2.20;99.90;;;;;;4908908;29;20040;-80
2024/01/08 09:02:14;;;;;;;51.63;37.05;;;2.30;99.90;;;;;;4905051;29;20040;-80
2024/01/08 09:04:41;;;;;;;53.25;37.28;;;2.40;99.90;;;;;;4897122;29;20139;-81
2024/01/08 09:07:09;;;;;;;52.00;36.33;;;2.50;99.90;;;;;;4904943;29;20088;-81
2024/01/08 09:09:36;;;;;;;45.03;31.90;;;2.50;99.90;;;;;;4905530;29;20131;-81
2024/01/08 09:12:06;;;;;;;44.22;33.08;;;2.60;99.90;;;;;;4904808;29;20075;-80
2024/01/08 09:14:34;;;;;;;44.58;33.30;;;2.80;99.90;;;;;;4906121;29;20079;-78
2024/01/08 09:17:02;;;;;;;45.08;30.08;;;2.80;99.90;;;;;;4905704;29;20064;-80
2024/01/08 09:19:29;;;;;;;43.88;31.27;;;2.80;99.90;;;;;;4905103;29;20349;-78
2024/01/08 09:21:57;;;;;;;33.78;25.20;;;2.90;99.90;;;;;;4905131;29;20118;-80
2024/01/08 09:24:24;;;;;;;37.28;24.88;;;2.90;99.90;;;;;;4895374;29;20047;-81
2024/01/08 09:26:52;;;;;;;34.47;24.88;;;2.80;99.90;;;;;;4896201;29;20052;-78
2024/01/08 09:29:21;;;;;;;44.35;30.50;;;2.90;99.90;;;;;;4904623;29;20510;-78
2024/01/08 09:31:48;;;;;;;49.63;33.80;;;2.90;99.90;;;;;;4889273;29;20056;-80
2024/01/08 09:34:15;;;;;;;42.08;29.17;;;2.80;99.90;;;;;;4904370;29;20124;-80
2024/01/08 09:36:43;;;;;;;44.45;28.50;;;2.90;99.90;;;;;;4888395;29;20149;-80
2024/01/08 09:39:11;;;;;;;40.80;28.73;;;2.90;99.90;;;;;;4895160;29;20063;-80
2024/01/08 09:41:39;;;;;;;31.58;22.27;;;2.90;99.90;;;;;;4904898;29;20044;-80
2024/01/08 09:44:07;;;;;;;31.77;22.30;;;2.70;99.90;;;;;;4904406;29;20082;-80
2024/01/08 09:46:43;;;;;;;40.17;26.25;;;2.50;99.90;;;;;;4904522;29;20458;-79
2024/01/08 09:49:14;;;;;;;38.50;28.48;;;2.50;99.90;;;;;;4904540;29;20040;-80
2024/01/08 09:51:43;;;;;;;40.00;28.08;;;2.60;99.90;;;;;;4905011;29;20123;-79
2024/01/08 09:54:11;;;;;;;39.38;29.65;;;2.70;99.90;;;;;;4904987;29;20049;-78
2024/01/08 09:56:38;;;;;;;41.15;29.00;;;2.80;99.90;;;;;;4904468;29;20506;-80
2024/01/08 09:59:06;;;;;;;36.70;27.70;;;2.70;99.90;;;;;;4904261;29;20108;-78
2024/01/08 10:01:33;;;;;;;46.25;31.08;;;2.60;99.90;;;;;;4887618;29;20528;-81
2024/01/08 10:04:03;;;;;;;46.95;32.85;;;2.60;99.90;;;;;;4905252;29;20045;-80
2024/01/08 10:06:30;;;;;;;48.15;33.28;;;2.50;99.90;;;;;;4903717;29;20531;-78
2024/01/08 10:08:58;;;;;;;48.83;33.47;;;2.30;99.90;;;;;;4904195;29;20409;-80
2024/01/08 10:11:26;;;;;;;49.97;34.53;;;2.40;99.90;;;;;;4895062;29;20146;-78
2024/01/08 10:13:54;;;;;;;45.15;31.25;;;2.60;99.90;;;;;;4904651;29;20508;-79
2024/01/08 10:16:21;;;;;;;45.63;31.17;;;2.80;99.90;;;;;;4905743;29;20129;-78
2024/01/08 10:18:49;;;;;;;42.10;30.02;;;2.90;99.90;;;;;;4886870;29;20079;-80
2024/01/08 10:21:19;;;;;;;45.40;31.58;;;3.00;99.90;;;;;;4904170;29;20083;-80
2024/01/08 10:23:47;;;;;;;42.30;29.33;;;3.00;99.90;;;;;;4904826;29;20048;-79
2024/01/08 10:26:17;;;;;;;48.88;32.70;;;3.10;99.90;;;;;;4904516;29;20064;-77
2024/01/08 10:28:46;;;;;;;47.90;33.17;;;3.20;99.90;;;;;;4904405;29;20104;-79
2024/01/08 10:31:14;;;;;;;52.30;34.78;;;3.40;99.90;;;;;;4886268;29;20052;-79
2024/01/08 10:33:41;;;;;;;45.78;30.35;;;3.60;99.90;;;;;;4903928;29;20124;-79
2024/01/08 10:36:10;;;;;;;43.88;29.50;;;3.70;99.90;;;;;;4904832;29;20048;-80
2024/01/08 10:38:40;;;;;;;38.38;26.13;;;3.60;99.90;;;;;;4903086;29;20060;-81
2024/01/08 10:41:09;;;;;;;37.58;25.65;;;3.60;1.00;;;;;;4903774;29;20049;-81
2024/01/08 10:43:36;;;;;;;44.15;28.75;;;3.60;99.90;;;;;;4904885;29;20055;-79
2024/01/08 10:46:06;;;;;;;41.10;28.10;;;3.40;99.90;;;;;;4903993;29;20074;-80
2024/01/08 10:48:41;;;;;;;37.85;24.92;;;3.40;99.90;;;;;;4901780;29;20068;-80
2024/01/08 10:51:09;;;;;;;38.47;24.55;;;3.20;1.00;;;;;;4894870;29;20055;-77
2024/01/08 10:53:45;;;;;;;36.65;25.63;;;3.20;99.90;;;;;;4903613;29;20140;-80
2024/01/08 10:56:15;;;;;;;41.67;27.52;;;3.30;1.00;;;;;;4887769;29;20324;-80
2024/01/08 10:58:53;;;;;;;39.10;26.73;;;3.40;1.00;;;;;;4886281;29;20410;-78
2024/01/08 11:01:22;;;;;;;37.40;24.65;;;3.30;1.00;;;;;;4903675;29;20036;-79
2024/01/08 11:03:50;;;;;;;32.88;23.83;;;3.30;99.90;;;;;;4903785;29;20053;-80
2024/01/08 11:06:18;;;;;;;37.53;24.23;;;3.30;1.00;;;;;;4903629;29;20096;-79
2024/01/08 11:08:46;;;;;;;43.42;26.90;;;3.40;1.00;;;;;;4893096;29;20040;-79
2024/01/08 11:11:18;;;;;;;43.28;27.45;;;3.50;1.00;;;;;;4893201;29;20041;-79
2024/01/08 11:13:45;;;;;;;43.83;28.08;;;3.50;99.90;;;;;;4902733;29;20055;-79
2024/01/08 11:16:18;;;;;;;39.97;26.77;;;3.50;99.90;;;;;;4904198;29;20045;-80
2024/01/08 11:18:47;;;;;;;38.60;25.45;;;3.70;99.90;;;;;;4901596;29;20076;-80
2024/01/08 11:21:24;;;;;;;43.47;29.38;;;3.80;99.90;;;;;;4903261;29;20041;-78
2024/01/08 11:23:53;;;;;;;34.67;22.85;;;4.00;99.90;;;;;;4886271;29;20441;-80
2024/01/08 11:26:22;;;;;;;32.45;21.30;;;3.60;99.90;;;;;;4885764;29;20040;-79
2024/01/08 11:29:03;;;;;;;28.85;19.80;;;3.20;99.90;;;;;;4903840;29;20044;-78
2024/01/08 11:32:02;;;;;;;30.08;20.77;;;2.80;1.00;;;;;;4896437;29;20149;-79
2024/01/08 11:34:52;;;;;;;36.45;24.42;;;2.50;1.00;;;;;;4906780;29;20048;-79
2024/01/08 11:37:31;;;;;;;42.33;28.33;;;2.50;1.00;;;;;;4897377;29;20075;-79
2024/01/08 11:40:02;;;;;;;40.13;28.48;;;2.50;1.00;;;;;;4889818;29;20955;-77
2024/01/08 11:42:31;;;;;;;42.08;29.63;;;2.60;1.00;;;;;;4907344;29;20040;-79
2024/01/08 11:45:00;;;;;;;39.15;29.95;;;2.70;1.00;;;;;;4906134;29;20394;-80
2024/01/08 11:47:27;;;;;;;42.63;30.65;;;2.70;1.00;;;;;;4889941;29;20049;-80
2024/01/08 11:49:55;;;;;;;41.15;29.02;;;2.70;1.00;;;;;;4906784;29;20071;-79
2024/01/08 11:52:22;;;;;;;41.67;30.63;;;2.50;1.00;;;;;;4906769;29;20044;-77
2024/01/08 11:54:52;;;;;;;46.78;31.15;;;2.40;99.90;;;;;;4889965;29;20049;-79
2024/01/08 11:57:21;;;;;;;55.35;36.05;;;2.30;1.00;;;;;;4906115;29;20135;-77
2024/01/08 11:59:49;;;;;;;52.28;33.03;;;2.20;1.00;;;;;;4906783;29;20072;-81
2024/01/08 12:02:17;;;;;;;46.80;31.98;;;2.20;99.90;;;;;;4906568;29;20412;-79
2024/01/08 12:04:53;;;;;;;44.58;32.22;;;2.30;99.90;;;;;;4891321;29;20048;-80
2024/01/08 12:07:21;;;;;;;46.95;32.65;;;2.60;1.00;;;;;;4889176;29;20106;-78
2024/01/08 12:09:49;;;;;;;45.70;30.60;;;2.80;1.00;;;;;;4906847;29;20033;-79
2024/01/08 12:12:18;;;;;;;40.05;28.17;;;2.90;1.00;;;;;;4907300;29;20095;-79
2024/01/08 12:14:48;;;;;;;40.10;25.95;;;3.10;1.00;;;;;;4907280;29;20131;-79
2024/01/08 12:17:17;;;;;;;38.38;26.25;;;3.20;99.90;;;;;;4906365;29;20112;-80
2024/01/08 12:19:46;;;;;;;39.97;27.55;;;3.20;99.90;;;;;;4906557;29;20044;-81
2024/01/08 12:22:15;;;;;;;39.03;26.92;;;3.30;1.00;;;;;;4906414;29;20096;-79
2024/01/08 12:24:44;;;;;;;37.45;26.88;;;3.30;99.90;;;;;;4889576;29;20104;-79
2024/01/08 12:27:15;;;;;;;39.42;26.90;;;3.10;1.00;;;;;;4904543;29;20123;-78
2024/01/08 12:29:43;;;;;;;36.13;25.70;;;3.00;1.00;;;;;;4906385;29;20131;-81
2024/01/08 12:32:14;;;;;;;35.67;24.95;;;3.00;99.90;;;;;;4906831;29;20132;-79
2024/01/08 12:34:42;;;;;;;34.28;24.65;;;3.00;87.60;;;;;;4889975;29;20504;-80
2024/01/08 12:37:11;;;;;;;38.03;26.38;;;2.90;1.00;;;;;;4889091;29;20049;-81
2024/01/08 12:39:39;;;;;;;35.78;26.83;;;2.90;1.00;;;;;;4908869;29;20053;-79
2024/01/08 12:42:08;;;;;;;38.28;28.08;;;2.70;1.00;;;;;;4910911;29;20047;-81
2024/01/08 12:44:36;;;;;;;41.40;27.50;;;2.60;25.10;;;;;;4898105;29;20052;-80
2024/01/08 12:47:07;;;;;;;48.78;33.22;;;2.40;1.00;;;;;;4895918;29;20048;-80
2024/01/08 12:49:36;;;;;;;45.60;31.60;;;2.30;1.00;;;;;;4934441;23;20051;-82
2024/01/08 12:52:05;;;;;;;46.10;32.47;;;2.30;99.90;;;;;;4944234;29;20063;-80
2024/01/08 12:54:36;;;;;;;48.75;31.67;;;2.50;1.00;;;;;;4929980;29;20107;-82